Time;durP1;ratioP1;P1;durP2;ratioP2;P2;SDS_P1;SDS_P2;PMS_P1;PMS_P2;Temp;Humidity;BMP_temperature;BMP_pressure;BME280_temperature;BME280_humidity;BME280_pressure;Samples;Min_cycle;Max_cycle;Signal;HPM_P1;HPM_P2
2021/01/11 00:01:43;;;;;;;;;;;16.50;60.20;;;;;;5045570;28;20006;-57
2021/01/11 00:04:10;;;;;;;;;;;16.50;60.10;;;;;;5037221;28;19932;-57
2021/01/11 00:06:40;;;;;;;;;;;16.40;60.10;;;;;;5047953;28;19931;-57
2021/01/11 00:09:06;;;;;;;;;;;16.40;60.10;;;;;;5037285;28;19924;-57
2021/01/11 00:11:34;;;;;;;;;;;16.40;60.20;;;;;;5046533;28;20709;-57
2021/01/11 00:14:03;;;;;;;;;;;16.40;60.10;;;;;;5039279;28;19924;-57
2021/01/11 00:16:29;;;;;;;;;;;16.40;60.20;;;;;;5049184;28;19925;-57
2021/01/11 00:18:56;;;;;;;;;;;16.40;60.10;;;;;;5037561;28;20404;-57
2021/01/11 00:21:22;;;;;;;;;;;16.40;60.20;;;;;;5047448;28;19931;-55
2021/01/11 00:23:48;;;;;;;;;;;16.30;60.10;;;;;;5038013;28;19984;-58
2021/01/11 00:26:14;;;;;;;;;;;16.40;60.20;;;;;;5047870;28;19932;-57
2021/01/11 00:28:42;;;;;;;;;;;16.30;60.10;;;;;;5037120;28;19935;-56
2021/01/11 00:31:08;;;;;;;;;;;16.30;60.10;;;;;;5048747;28;19931;-56
2021/01/11 00:33:35;;;;;;;;;;;16.30;60.10;;;;;;5048661;28;19930;-55
2021/01/11 00:36:03;;;;;;;;;;;16.30;60.10;;;;;;5037204;28;21489;-57
2021/01/11 00:38:29;;;;;;;;;;;16.30;60.10;;;;;;5045926;28;19925;-57
2021/01/11 00:40:55;;;;;;;;;;;16.30;60.20;;;;;;5039751;28;19925;-57
2021/01/11 00:43:21;;;;;;;;;;;16.30;60.20;;;;;;5041294;28;19925;-57
2021/01/11 00:45:48;;;;;;;;;;;16.30;60.10;;;;;;5022038;28;19932;-57
2021/01/11 00:48:14;;;;;;;;;;;16.30;60.20;;;;;;5045310;28;19931;-57
2021/01/11 00:50:40;;;;;;;;;;;16.20;60.10;;;;;;5038540;28;19932;-57
2021/01/11 00:53:07;;;;;;;;;;;16.30;60.20;;;;;;5044304;28;20416;-57
2021/01/11 00:55:33;;;;;;;;;;;16.30;60.10;;;;;;5038107;28;20375;-56
2021/01/11 00:57:59;;;;;;;;;;;16.20;60.20;;;;;;5046436;28;19929;-57
2021/01/11 01:00:25;;;;;;;;;;;16.30;60.10;;;;;;5037872;28;19925;-57
2021/01/11 01:02:51;;;;;;;;;;;16.30;60.30;;;;;;5046410;28;19924;-56
2021/01/11 01:05:18;;;;;;;;;;;16.20;60.10;;;;;;5035850;28;19931;-56
2021/01/11 01:07:44;;;;;;;;;;;16.20;60.10;;;;;;5043995;28;19931;-57
2021/01/11 01:10:11;;;;;;;;;;;16.30;60.10;;;;;;5049257;28;19929;-58
2021/01/11 01:12:37;;;;;;;;;;;16.20;60.20;;;;;;5038642;28;19924;-57
2021/01/11 01:15:04;;;;;;;;;;;16.20;60.20;;;;;;5046880;28;19990;-56
2021/01/11 01:17:30;;;;;;;;;;;16.20;60.10;;;;;;5036965;28;19939;-57
2021/01/11 01:19:57;;;;;;;;;;;16.20;60.10;;;;;;5048315;28;19951;-57
2021/01/11 01:22:23;;;;;;;;;;;16.20;60.20;;;;;;5038634;28;19931;-57
2021/01/11 01:24:49;;;;;;;;;;;16.20;60.20;;;;;;5044204;28;20272;-57
2021/01/11 01:27:17;;;;;;;;;;;16.20;60.10;;;;;;5034248;28;20282;-57
2021/01/11 01:29:43;;;;;;;;;;;16.10;60.10;;;;;;5046549;28;19947;-57
2021/01/11 01:32:09;;;;;;;;;;;16.10;60.10;;;;;;5036257;28;20427;-57
2021/01/11 01:34:35;;;;;;;;;;;16.20;60.10;;;;;;5045854;28;19928;-55
2021/01/11 01:37:02;;;;;;;;;;;16.10;60.00;;;;;;5035210;28;19924;-58
2021/01/11 01:39:28;;;;;;;;;;;16.10;60.00;;;;;;5044606;28;19939;-58
2021/01/11 01:41:54;;;;;;;;;;;16.10;60.00;;;;;;5037827;28;19925;-56
2021/01/11 01:44:20;;;;;;;;;;;16.10;60.00;;;;;;5045910;28;19929;-56
2021/01/11 01:46:47;;;;;;;;;;;16.10;59.90;;;;;;5042846;28;20001;-55
2021/01/11 01:49:13;;;;;;;;;;;16.10;59.90;;;;;;5042592;28;19970;-57
2021/01/11 01:51:40;;;;;;;;;;;16.10;59.80;;;;;;5046583;28;20412;-57
2021/01/11 01:54:07;;;;;;;;;;;16.10;59.90;;;;;;5035942;28;19931;-56
2021/01/11 01:56:33;;;;;;;;;;;16.10;59.80;;;;;;5047546;28;20381;-57
2021/01/11 01:58:59;;;;;;;;;;;16.10;59.90;;;;;;5033005;28;19925;-57
2021/01/11 02:01:26;;;;;;;;;;;16.10;59.70;;;;;;5043274;28;21397;-57
2021/01/11 02:03:52;;;;;;;;;;;16.10;59.70;;;;;;5036747;28;19951;-56
2021/01/11 02:06:19;;;;;;;;;;;16.10;59.70;;;;;;5041649;28;20318;-56
2021/01/11 02:09:14;;;;;;;;;;;16.00;59.70;;;;;;5037615;28;19931;-55
2021/01/11 02:11:54;;;;;;;;;;;16.00;59.70;;;;;;5029146;28;19929;-56
2021/01/11 02:14:39;;;;;;;;;;;16.00;59.60;;;;;;5033518;28;19929;-55
2021/01/11 02:17:09;;;;;;;;;;;16.00;59.60;;;;;;5029589;28;19925;-55
2021/01/11 02:19:54;;;;;;;;;;;16.00;59.60;;;;;;5036407;28;19951;-56
2021/01/11 02:22:28;;;;;;;;;;;16.00;59.50;;;;;;5039817;28;20408;-58
2021/01/11 02:25:13;;;;;;;;;;;16.00;59.50;;;;;;5031825;28;20290;-57
2021/01/11 02:27:44;;;;;;;;;;;16.00;59.40;;;;;;5044396;28;20043;-55
2021/01/11 02:30:12;;;;;;;;;;;16.00;59.50;;;;;;5036334;28;19929;-55
2021/01/11 02:32:59;;;;;;;;;;;16.00;59.50;;;;;;5043890;28;19924;-56
2021/01/11 02:35:27;;;;;;;;;;;16.00;59.50;;;;;;5036068;28;20447;-56
2021/01/11 02:37:53;;;;;;;;;;;16.00;59.60;;;;;;5042255;28;19925;-56
2021/01/11 02:40:19;;;;;;;;;;;16.00;59.50;;;;;;5038804;28;19925;-55
2021/01/11 02:42:46;;;;;;;;;;;16.00;59.40;;;;;;5047202;28;20332;-56
2021/01/11 02:45:12;;;;;;;;;;;16.00;59.50;;;;;;5037052;28;19951;-56
2021/01/11 02:47:38;;;;;;;;;;;15.90;59.30;;;;;;5045572;28;20296;-57
2021/01/11 02:50:05;;;;;;;;;;;16.00;59.40;;;;;;5037582;28;20419;-56
2021/01/11 02:52:40;;;;;;;;;;;15.90;59.30;;;;;;5044972;28;19932;-57
2021/01/11 02:55:10;;;;;;;;;;;15.90;59.30;;;;;;5037793;28;19924;-57
2021/01/11 02:57:42;;;;;;;;;;;15.90;59.30;;;;;;5042353;28;19931;-56
2021/01/11 03:00:09;;;;;;;;;;;15.90;59.30;;;;;;5038514;28;19939;-57
2021/01/11 03:02:39;;;;;;;;;;;15.90;59.20;;;;;;5048258;28;19932;-56
2021/01/11 03:05:06;;;;;;;;;;;15.90;59.20;;;;;;5042651;28;19924;-56
2021/01/11 03:07:33;;;;;;;;;;;15.90;59.20;;;;;;5047356;28;20403;-56
2021/01/11 03:09:59;;;;;;;;;;;15.90;59.10;;;;;;5047513;28;19939;-56
2021/01/11 03:12:27;;;;;;;;;;;15.90;59.10;;;;;;5040003;28;20320;-56
2021/01/11 03:14:53;;;;;;;;;;;15.90;59.10;;;;;;5048761;28;19931;-56
2021/01/11 03:17:19;;;;;;;;;;;15.90;59.10;;;;;;5039657;28;20277;-56
2021/01/11 03:19:46;;;;;;;;;;;15.90;59.10;;;;;;5048796;28;19924;-56
2021/01/11 03:22:12;;;;;;;;;;;15.90;59.00;;;;;;5042467;28;20505;-56
2021/01/11 03:24:40;;;;;;;;;;;15.90;59.00;;;;;;5046561;28;19925;-57
2021/01/11 03:27:06;;;;;;;;;;;15.90;59.00;;;;;;5041617;28;19967;-56
2021/01/11 03:29:32;;;;;;;;;;;15.90;58.90;;;;;;5047467;28;20403;-55
2021/01/11 03:31:58;;;;;;;;;;;15.80;58.80;;;;;;5039311;28;19944;-55
2021/01/11 03:34:30;;;;;;;;;;;15.80;58.80;;;;;;5048187;28;20433;-56
2021/01/11 03:36:57;;;;;;;;;;;15.80;58.90;;;;;;5039193;28;20305;-56
2021/01/11 03:39:23;;;;;;;;;;;15.80;58.90;;;;;;5048116;28;19931;-56
2021/01/11 03:41:49;;;;;;;;;;;15.80;58.80;;;;;;5039499;28;19939;-55
2021/01/11 03:44:16;;;;;;;;;;;15.80;58.80;;;;;;5045671;28;19925;-57
2021/01/11 03:46:42;;;;;;;;;;;15.80;58.80;;;;;;5046878;28;19932;-55
2021/01/11 03:49:08;;;;;;;;;;;15.80;58.80;;;;;;5037747;28;19939;-57
2021/01/11 03:51:34;;;;;;;;;;;15.80;58.80;;;;;;5046021;28;20297;-57
2021/01/11 03:54:01;;;;;;;;;;;15.80;58.80;;;;;;5038538;28;19929;-57
2021/01/11 03:56:27;;;;;;;;;;;15.80;58.70;;;;;;5043960;28;19925;-57
2021/01/11 03:58:53;;;;;;;;;;;15.80;58.60;;;;;;5031319;28;20666;-57
2021/01/11 04:01:19;;;;;;;;;;;15.80;58.70;;;;;;5042296;28;19925;-57
2021/01/11 04:03:48;;;;;;;;;;;15.80;58.60;;;;;;5033879;28;20530;-57
2021/01/11 04:06:18;;;;;;;;;;;15.80;58.60;;;;;;5042444;28;19925;-55
2021/01/11 04:08:45;;;;;;;;;;;15.80;58.60;;;;;;5031519;28;19925;-55
2021/01/11 04:11:12;;;;;;;;;;;15.80;58.60;;;;;;5043920;28;20369;-55
2021/01/11 04:13:39;;;;;;;;;;;15.80;58.60;;;;;;5035245;28;20484;-56
2021/01/11 04:16:05;;;;;;;;;;;15.80;58.60;;;;;;5042560;28;20369;-56
2021/01/11 04:18:32;;;;;;;;;;;15.70;58.50;;;;;;5033003;28;20439;-56
2021/01/11 04:20:59;;;;;;;;;;;15.80;58.60;;;;;;5039077;28;19932;-55
2021/01/11 04:23:25;;;;;;;;;;;15.70;58.50;;;;;;5036611;28;19932;-57
2021/01/11 04:25:52;;;;;;;;;;;15.70;58.50;;;;;;5043323;28;19925;-57
2021/01/11 04:28:18;;;;;;;;;;;15.70;58.40;;;;;;5045943;28;19931;-57
2021/01/11 04:30:45;;;;;;;;;;;15.70;58.40;;;;;;5032275;28;19932;-54
2021/01/11 04:33:12;;;;;;;;;;;15.80;58.40;;;;;;5041456;28;19959;-56
2021/01/11 04:35:39;;;;;;;;;;;15.70;58.40;;;;;;5034623;28;19925;-55
2021/01/11 04:38:05;;;;;;;;;;;15.70;58.40;;;;;;5046837;28;19928;-56
2021/01/11 04:40:32;;;;;;;;;;;15.70;58.40;;;;;;5038297;28;19925;-55
2021/01/11 04:43:02;;;;;;;;;;;15.70;58.30;;;;;;5047207;28;20408;-56
2021/01/11 04:45:28;;;;;;;;;;;15.70;58.30;;;;;;5032939;28;20010;-57
2021/01/11 04:47:56;;;;;;;;;;;15.70;58.90;;;;;;5049155;28;19924;-56
2021/01/11 04:50:23;;;;;;;;;;;15.70;58.30;;;;;;5034557;28;20286;-57
2021/01/11 04:52:50;;;;;;;;;;;15.70;58.20;;;;;;5048846;28;19933;-57
2021/01/11 04:55:17;;;;;;;;;;;15.70;58.20;;;;;;5035220;28;19925;-56
2021/01/11 04:57:54;;;;;;;;;;;15.70;58.20;;;;;;5044649;28;19932;-55
2021/01/11 05:00:25;;;;;;;;;;;15.70;58.10;;;;;;5034502;28;20401;-56
2021/01/11 05:03:01;;;;;;;;;;;15.70;58.10;;;;;;5045809;28;20440;-56
2021/01/11 05:05:28;;;;;;;;;;;15.70;58.10;;;;;;5038623;28;19925;-58
2021/01/11 05:07:55;;;;;;;;;;;15.70;58.10;;;;;;5045055;28;19931;-57
2021/01/11 05:10:22;;;;;;;;;;;15.70;58.00;;;;;;5034984;28;19935;-55
2021/01/11 05:12:53;;;;;;;;;;;15.70;58.00;;;;;;5048888;28;19929;-57
2021/01/11 05:15:23;;;;;;;;;;;15.70;58.00;;;;;;5046091;28;20365;-58
2021/01/11 05:17:49;;;;;;;;;;;15.70;58.00;;;;;;5036041;28;20018;-57
2021/01/11 05:20:19;;;;;;;;;;;15.60;57.90;;;;;;5044736;28;19925;-55
2021/01/11 05:22:48;;;;;;;;;;;15.60;57.90;;;;;;5039227;28;19925;-55
2021/01/11 05:25:18;;;;;;;;;;;15.70;57.90;;;;;;5042576;28;19925;-56
2021/01/11 05:27:45;;;;;;;;;;;15.70;57.90;;;;;;5040097;28;19956;-57
2021/01/11 05:30:23;;;;;;;;;;;15.70;57.90;;;;;;5042525;28;20304;-57
2021/01/11 05:32:49;;;;;;;;;;;15.60;57.90;;;;;;5037849;28;19933;-57
2021/01/11 05:35:21;;;;;;;;;;;15.60;57.80;;;;;;5046075;28;19925;-58
2021/01/11 05:37:47;;;;;;;;;;;15.60;57.90;;;;;;5037706;28;19944;-57
2021/01/11 05:40:15;;;;;;;;;;;15.60;57.90;;;;;;5044496;28;20281;-56
2021/01/11 05:42:42;;;;;;;;;;;15.60;57.90;;;;;;5035063;28;20424;-57
2021/01/11 05:45:15;;;;;;;;;;;15.60;57.90;;;;;;5042202;28;19932;-57
2021/01/11 05:47:56;;;;;;;;;;;15.60;57.90;;;;;;5033654;28;19929;-57
2021/01/11 05:50:25;;;;;;;;;;;15.60;57.90;;;;;;5045407;28;19924;-57
2021/01/11 05:52:51;;;;;;;;;;;15.60;57.90;;;;;;5039514;28;19932;-55
2021/01/11 05:55:24;;;;;;;;;;;15.60;57.90;;;;;;5043500;28;19924;-57
2021/01/11 05:57:57;;;;;;;;;;;15.60;57.90;;;;;;5035587;28;19933;-55
2021/01/11 06:00:25;;;;;;;;;;;15.60;57.90;;;;;;5045127;28;19935;-56
2021/01/11 06:02:52;;;;;;;;;;;15.60;57.80;;;;;;5036095;28;19929;-55
2021/01/11 06:05:19;;;;;;;;;;;15.60;57.80;;;;;;5038428;28;19939;-55
2021/01/11 06:07:46;;;;;;;;;;;15.60;57.70;;;;;;5032092;28;19933;-56
2021/01/11 06:10:13;;;;;;;;;;;15.60;57.70;;;;;;5044234;28;20012;-57
2021/01/11 06:12:40;;;;;;;;;;;15.60;57.70;;;;;;5041153;28;19925;-55
2021/01/11 06:15:10;;;;;;;;;;;15.60;57.70;;;;;;5034337;28;19931;-57
2021/01/11 06:17:38;;;;;;;;;;;15.60;57.70;;;;;;5036842;28;19986;-56
2021/01/11 06:20:05;;;;;;;;;;;15.60;57.50;;;;;;5036192;28;20301;-55
2021/01/11 06:22:58;;;;;;;;;;;15.60;57.40;;;;;;5029001;28;19929;-55
2021/01/11 06:25:24;;;;;;;;;;;15.60;57.60;;;;;;5032918;28;19931;-54
2021/01/11 06:27:57;;;;;;;;;;;15.60;57.60;;;;;;5046111;28;19925;-57
2021/01/11 06:30:33;;;;;;;;;;;15.60;57.50;;;;;;5031799;28;20015;-55
2021/01/11 06:32:59;;;;;;;;;;;15.60;57.40;;;;;;5043140;28;19925;-56
2021/01/11 06:35:29;;;;;;;;;;;15.60;57.40;;;;;;5034643;28;19925;-56
2021/01/11 06:38:05;;;;;;;;;;;15.60;57.30;;;;;;5042165;28;19925;-56
2021/01/11 06:40:32;;;;;;;;;;;15.60;57.50;;;;;;5036359;28;19937;-56
2021/01/11 06:42:59;;;;;;;;;;;15.60;58.10;;;;;;5025911;28;19975;-55
2021/01/11 06:45:39;;;;;;;;;;;15.60;57.80;;;;;;5035871;28;19931;-55
2021/01/11 06:48:12;;;;;;;;;;;15.60;57.80;;;;;;5028393;28;19925;-56
2021/01/11 06:50:38;;;;;;;;;;;15.50;57.80;;;;;;5033336;28;19925;-57
2021/01/11 06:53:05;;;;;;;;;;;15.60;57.70;;;;;;5044744;28;19925;-55
2021/01/11 06:55:31;;;;;;;;;;;15.60;57.70;;;;;;5034074;28;19933;-55
2021/01/11 06:57:58;;;;;;;;;;;15.60;57.60;;;;;;5047755;28;20014;-57
2021/01/11 07:00:32;;;;;;;;;;;15.60;57.60;;;;;;5036543;28;19924;-54
2021/01/11 07:02:59;;;;;;;;;;;15.60;57.70;;;;;;5043069;28;19924;-56
2021/01/11 07:05:38;;;;;;;;;;;15.60;58.00;;;;;;5046604;28;19933;-54
2021/01/11 07:08:05;;;;;;;;;;;15.50;57.70;;;;;;5027344;28;20289;-54
2021/01/11 07:10:31;;;;;;;;;;;15.50;57.70;;;;;;5043492;28;19939;-53
2021/01/11 07:13:31;;;;;;;;;;;15.50;57.70;;;;;;5043508;28;20288;-55
2021/01/11 07:15:57;;;;;;;;;;;15.60;57.80;;;;;;4997235;28;19925;-55
2021/01/11 07:18:51;;;;;;;;;;;15.50;57.70;;;;;;5044427;28;19955;-55
2021/01/11 07:21:19;;;;;;;;;;;15.60;57.50;;;;;;5037688;28;20131;-53
2021/01/11 07:23:46;;;;;;;;;;;15.50;57.40;;;;;;5047697;28;20408;-54
2021/01/11 07:26:13;;;;;;;;;;;15.50;57.30;;;;;;5046072;28;19976;-56
2021/01/11 07:28:47;;;;;;;;;;;15.50;57.30;;;;;;5047668;28;20534;-55
2021/01/11 07:31:16;;;;;;;;;;;15.50;57.30;;;;;;5049175;28;19960;-54
2021/01/11 07:33:43;;;;;;;;;;;15.50;57.20;;;;;;5045740;28;19932;-53
2021/01/11 07:36:16;;;;;;;;;;;15.50;57.20;;;;;;5054865;28;19908;-53
2021/01/11 07:38:42;;;;;;;;;;;15.50;57.20;;;;;;5044351;28;20284;-54
2021/01/11 07:41:09;;;;;;;;;;;15.50;57.20;;;;;;5053616;28;19988;-56
2021/01/11 07:43:35;;;;;;;;;;;15.50;57.00;;;;;;5034917;28;19933;-54
2021/01/11 07:46:04;;;;;;;;;;;15.50;57.20;;;;;;5049707;28;19933;-55
2021/01/11 07:48:30;;;;;;;;;;;15.60;58.80;;;;;;5029334;28;19955;-57
2021/01/11 07:51:10;;;;;;;;;;;15.60;59.40;;;;;;5051334;28;19915;-58
2021/01/11 07:53:39;;;;;;;;;;;15.60;59.00;;;;;;5037175;28;19935;-58
2021/01/11 07:56:09;;;;;;;;;;;15.50;58.60;;;;;;5055797;28;19924;-57
2021/01/11 07:58:37;;;;;;;;;;;15.60;58.30;;;;;;5032529;28;20345;-57
2021/01/11 08:01:04;;;;;;;;;;;15.60;58.10;;;;;;5052362;28;19925;-56
2021/01/11 08:03:31;;;;;;;;;;;15.50;57.70;;;;;;5035946;28;19945;-58
2021/01/11 08:06:02;;;;;;;;;;;15.60;57.90;;;;;;5054787;28;19929;-53
2021/01/11 08:08:31;;;;;;;;;;;15.50;57.70;;;;;;5021357;28;19932;-56
2021/01/11 08:11:01;;;;;;;;;;;15.50;57.40;;;;;;5042384;28;19956;-57
2021/01/11 08:13:27;;;;;;;;;;;15.60;58.40;;;;;;5044584;28;19924;-58
2021/01/11 08:15:54;;;;;;;;;;;16.40;56.50;;;;;;5052040;28;19935;-61
2021/01/11 08:18:21;;;;;;;;;;;17.20;55.00;;;;;;5039230;28;19933;-61
2021/01/11 08:20:48;;;;;;;;;;;17.80;53.80;;;;;;5046578;28;19925;-61
2021/01/11 08:23:14;;;;;;;;;;;18.30;52.40;;;;;;5039580;28;19964;-63
2021/01/11 08:25:40;;;;;;;;;;;18.70;51.60;;;;;;5037045;28;19925;-60
2021/01/11 08:28:08;;;;;;;;;;;18.90;51.20;;;;;;5042849;28;19925;-59
2021/01/11 08:30:34;;;;;;;;;;;19.20;50.80;;;;;;5039552;28;19928;-60
2021/01/11 08:33:05;;;;;;;;;;;19.40;50.10;;;;;;5047942;28;19935;-60
2021/01/11 08:35:31;;;;;;;;;;;19.70;49.80;;;;;;5038108;28;19935;-61
2021/01/11 08:37:58;;;;;;;;;;;19.80;49.40;;;;;;5049623;28;19928;-62
2021/01/11 08:40:32;;;;;;;;;;;20.10;49.20;;;;;;5040867;28;19972;-60
2021/01/11 08:43:09;;;;;;;;;;;20.20;48.80;;;;;;5043969;28;19924;-60
2021/01/11 08:45:37;;;;;;;;;;;20.40;48.50;;;;;;5036447;28;19925;-60
2021/01/11 08:48:05;;;;;;;;;;;20.50;48.20;;;;;;5049399;28;19931;-59
2021/01/11 08:50:34;;;;;;;;;;;20.60;48.00;;;;;;5036769;28;19928;-59
2021/01/11 08:53:19;;;;;;;;;;;20.70;47.60;;;;;;5044477;28;20405;-59
2021/01/11 08:55:55;;;;;;;;;;;20.80;47.90;;;;;;5037877;28;19931;-61
2021/01/11 08:58:21;;;;;;;;;;;21.00;47.80;;;;;;5044442;28;19963;-61
2021/01/11 09:00:47;;;;;;;;;;;21.10;47.70;;;;;;5035712;28;19946;-60
2021/01/11 09:03:13;;;;;;;;;;;21.30;47.60;;;;;;5049334;28;20012;-59
2021/01/11 09:05:41;;;;;;;;;;;21.40;47.40;;;;;;5038268;28;20261;-59
2021/01/11 09:08:15;;;;;;;;;;;21.60;47.40;;;;;;5044693;28;19952;-60
2021/01/11 09:10:42;;;;;;;;;;;21.70;47.00;;;;;;5036023;28;19979;-61
2021/01/11 09:13:18;;;;;;;;;;;21.80;47.00;;;;;;5041029;28;19932;-61
2021/01/11 09:15:44;;;;;;;;;;;21.80;46.80;;;;;;5041419;28;23150;-64
2021/01/11 09:18:12;;;;;;;;;;;22.00;46.60;;;;;;5044869;28;19936;-63
2021/01/11 09:20:38;;;;;;;;;;;22.10;46.40;;;;;;5046285;28;19931;-59
2021/01/11 09:23:05;;;;;;;;;;;22.20;46.10;;;;;;5041954;28;19931;-61
2021/01/11 09:25:32;;;;;;;;;;;22.30;45.90;;;;;;5046713;28;19968;-63
2021/01/11 09:28:00;;;;;;;;;;;22.40;45.80;;;;;;5035303;28;20370;-61
2021/01/11 09:30:27;;;;;;;;;;;22.40;45.70;;;;;;5047748;28;20304;-61
2021/01/11 09:32:53;;;;;;;;;;;22.60;45.60;;;;;;5036426;28;19941;-61
2021/01/11 09:35:20;;;;;;;;;;;22.60;45.30;;;;;;5031583;28;19936;-62
2021/01/11 09:37:46;;;;;;;;;;;22.70;45.20;;;;;;5034739;28;19937;-62
2021/01/11 09:40:13;;;;;;;;;;;22.70;45.10;;;;;;5042549;28;20557;-64
2021/01/11 09:42:39;;;;;;;;;;;22.80;45.10;;;;;;5029314;28;19933;-62
2021/01/11 09:45:06;;;;;;;;;;;22.90;44.90;;;;;;5040649;28;19925;-63
2021/01/11 09:47:32;;;;;;;;;;;23.00;44.90;;;;;;5029938;28;19925;-61
2021/01/11 09:49:59;;;;;;;;;;;23.00;44.70;;;;;;5044444;28;19955;-61
2021/01/11 09:52:25;;;;;;;;;;;23.10;44.40;;;;;;5035149;28;19950;-61
2021/01/11 09:54:52;;;;;;;;;;;23.20;44.30;;;;;;5044039;28;19990;-61
2021/01/11 09:57:18;;;;;;;;;;;23.20;44.20;;;;;;5037389;28;19971;-60
2021/01/11 09:59:44;;;;;;;;;;;23.50;44.00;;;;;;5041461;28;19925;-61
2021/01/11 10:02:10;;;;;;;;;;;23.50;43.60;;;;;;5041798;28;19933;-63
2021/01/11 10:04:37;;;;;;;;;;;23.50;43.60;;;;;;5029560;28;19941;-62
2021/01/11 10:07:05;;;;;;;;;;;23.60;43.70;;;;;;5041392;28;19924;-64
2021/01/11 10:09:33;;;;;;;;;;;23.50;43.40;;;;;;5032951;28;19971;-64
2021/01/11 10:12:01;;;;;;;;;;;23.50;43.40;;;;;;5047863;28;19925;-61
2021/01/11 10:14:28;;;;;;;;;;;23.60;43.20;;;;;;5038479;28;20452;-64
2021/01/11 10:16:54;;;;;;;;;;;23.70;43.60;;;;;;5043273;28;19925;-64
2021/01/11 10:19:28;;;;;;;;;;;23.80;43.40;;;;;;5033616;28;19940;-62
2021/01/11 10:21:54;;;;;;;;;;;23.90;43.90;;;;;;5042260;28;20254;-63
2021/01/11 10:24:21;;;;;;;;;;;23.90;43.30;;;;;;5032146;28;19933;-62
2021/01/11 10:26:48;;;;;;;;;;;24.00;43.10;;;;;;5042537;28;19925;-58
2021/01/11 10:29:15;;;;;;;;;;;24.20;43.10;;;;;;5039123;28;19983;-55
2021/01/11 10:31:41;;;;;;;;;;;24.20;42.90;;;;;;5046578;28;19932;-60
2021/01/11 10:34:19;;;;;;;;;;;24.30;42.90;;;;;;5043093;28;20334;-58
2021/01/11 10:36:46;;;;;;;;;;;24.30;43.00;;;;;;5046999;28;20378;-62
2021/01/11 10:39:13;;;;;;;;;;;24.40;42.90;;;;;;5037764;28;20374;-61
2021/01/11 10:41:40;;;;;;;;;;;24.40;43.00;;;;;;5047709;28;19932;-57
2021/01/11 10:44:07;;;;;;;;;;;24.40;42.80;;;;;;5044198;28;20308;-57
2021/01/11 10:46:33;;;;;;;;;;;24.50;42.90;;;;;;5044804;28;19929;-60
2021/01/11 10:49:00;;;;;;;;;;;24.50;42.90;;;;;;5042579;28;20552;-60
2021/01/11 10:51:26;;;;;;;;;;;24.50;42.70;;;;;;5042341;28;19924;-57
2021/01/11 10:53:58;;;;;;;;;;;24.50;42.70;;;;;;5049225;28;20572;-57
2021/01/11 10:56:26;;;;;;;;;;;24.60;42.50;;;;;;5038268;28;19925;-58
2021/01/11 10:58:52;;;;;;;;;;;24.60;42.70;;;;;;5046483;28;19932;-59
2021/01/11 11:01:18;;;;;;;;;;;24.70;42.50;;;;;;5041288;28;19936;-59
2021/01/11 11:03:45;;;;;;;;;;;24.80;42.20;;;;;;5047461;28;19924;-58
2021/01/11 11:06:12;;;;;;;;;;;24.90;42.10;;;;;;5032065;28;19943;-60
2021/01/11 11:08:40;;;;;;;;;;;24.90;42.60;;;;;;5041089;28;19929;-59
2021/01/11 11:11:06;;;;;;;;;;;25.00;41.80;;;;;;5033988;28;19931;-62
2021/01/11 11:13:34;;;;;;;;;;;25.00;42.10;;;;;;5041457;28;20494;-62
2021/01/11 11:16:04;;;;;;;;;;;25.10;42.10;;;;;;5032439;28;19929;-59
2021/01/11 11:18:30;;;;;;;;;;;25.10;41.70;;;;;;5042387;28;20561;-61
2021/01/11 11:20:56;;;;;;;;;;;25.10;41.70;;;;;;5033905;28;19936;-62
2021/01/11 11:23:23;;;;;;;;;;;25.20;41.70;;;;;;5045250;28;19925;-61
2021/01/11 11:25:49;;;;;;;;;;;25.30;41.60;;;;;;5027861;28;20019;-61
2021/01/11 11:28:16;;;;;;;;;;;25.30;41.40;;;;;;5042820;28;19972;-61
2021/01/11 11:30:43;;;;;;;;;;;25.30;41.20;;;;;;5046333;28;19962;-62
2021/01/11 11:33:10;;;;;;;;;;;25.40;41.50;;;;;;5038174;28;19925;-62
2021/01/11 11:35:40;;;;;;;;;;;25.40;41.50;;;;;;5042723;28;19935;-59
2021/01/11 11:38:09;;;;;;;;;;;25.40;40.90;;;;;;5037218;28;19943;-58
2021/01/11 11:40:36;;;;;;;;;;;25.40;40.70;;;;;;5033436;28;19941;-58
2021/01/11 11:43:22;;;;;;;;;;;25.30;40.50;;;;;;5022854;28;19941;-57
2021/01/11 11:45:49;;;;;;;;;;;25.40;40.30;;;;;;5028596;28;19936;-57
2021/01/11 11:48:15;;;;;;;;;;;25.30;40.10;;;;;;5030474;28;19936;-57
2021/01/11 11:50:42;;;;;;;;;;;25.40;40.10;;;;;;5039385;28;20749;-59
2021/01/11 11:53:08;;;;;;;;;;;25.40;39.80;;;;;;5028488;28;19929;-58
2021/01/11 11:55:35;;;;;;;;;;;25.40;39.90;;;;;;5036494;28;19933;-58
2021/01/11 11:58:01;;;;;;;;;;;25.40;39.60;;;;;;5025716;28;19995;-57
2021/01/11 12:00:28;;;;;;;;;;;25.40;39.60;;;;;;5034044;28;19929;-59
2021/01/11 12:03:11;;;;;;;;;;;25.30;39.60;;;;;;5028731;28;19933;-58
2021/01/11 12:05:38;;;;;;;;;;;25.30;39.70;;;;;;5033537;28;19939;-59
2021/01/11 12:08:04;;;;;;;;;;;25.30;39.50;;;;;;5022905;28;19932;-59
2021/01/11 12:10:30;;;;;;;;;;;25.30;39.40;;;;;;5033180;28;20067;-60
2021/01/11 12:12:56;;;;;;;;;;;25.40;39.40;;;;;;5022171;28;19932;-59
2021/01/11 12:15:23;;;;;;;;;;;25.40;39.30;;;;;;5032077;28;19932;-63
2021/01/11 12:17:50;;;;;;;;;;;25.30;39.60;;;;;;5033262;28;19933;-62
2021/01/11 12:20:16;;;;;;;;;;;25.40;39.80;;;;;;5015099;28;19954;-61
2021/01/11 12:22:42;;;;;;;;;;;25.50;39.80;;;;;;5046521;28;19932;-62
2021/01/11 12:25:09;;;;;;;;;;;25.60;39.90;;;;;;5032716;28;19931;-62
2021/01/11 12:27:35;;;;;;;;;;;25.70;39.90;;;;;;5041253;28;19925;-61
2021/01/11 12:30:03;;;;;;;;;;;25.80;40.10;;;;;;5032622;28;19936;-62
2021/01/11 12:32:29;;;;;;;;;;;25.80;40.20;;;;;;5043763;28;19929;-60
2021/01/11 12:34:55;;;;;;;;;;;25.80;40.00;;;;;;5036847;28;19924;-63
2021/01/11 12:37:22;;;;;;;;;;;25.90;40.10;;;;;;5042978;28;19935;-61
2021/01/11 12:39:48;;;;;;;;;;;26.00;40.00;;;;;;5034545;28;19932;-62
2021/01/11 12:42:14;;;;;;;;;;;26.00;40.00;;;;;;5046065;28;19931;-62
2021/01/11 12:44:41;;;;;;;;;;;26.00;39.80;;;;;;5037989;28;19925;-63
2021/01/11 12:47:07;;;;;;;;;;;26.10;39.90;;;;;;5044241;28;19935;-61
2021/01/11 12:49:40;;;;;;;;;;;26.20;40.10;;;;;;5037115;28;19929;-62
2021/01/11 12:52:12;;;;;;;;;;;26.30;39.80;;;;;;5041450;28;19956;-60
2021/01/11 12:54:39;;;;;;;;;;;26.30;39.40;;;;;;5035501;28;19932;-57
2021/01/11 12:57:05;;;;;;;;;;;26.30;39.20;;;;;;5042433;28;19928;-60
2021/01/11 12:59:32;;;;;;;;;;;26.30;39.10;;;;;;5043827;28;20501;-64
2021/01/11 13:01:59;;;;;;;;;;;26.30;39.40;;;;;;5034594;28;19987;-62
2021/01/11 13:04:25;;;;;;;;;;;26.30;39.50;;;;;;5043368;28;19926;-62
2021/01/11 13:06:52;;;;;;;;;;;26.30;39.70;;;;;;5034499;28;19933;-61
2021/01/11 13:09:18;;;;;;;;;;;26.30;39.80;;;;;;5042959;28;20028;-60
2021/01/11 13:11:45;;;;;;;;;;;26.30;40.30;;;;;;5032575;28;19924;-63
2021/01/11 13:14:19;;;;;;;;;;;26.30;40.10;;;;;;5043862;28;19972;-60
2021/01/11 13:16:47;;;;;;;;;;;26.40;40.00;;;;;;5032485;28;20588;-60
2021/01/11 13:19:14;;;;;;;;;;;26.40;40.00;;;;;;5044145;28;20003;-59
2021/01/11 13:21:40;;;;;;;;;;;26.40;40.10;;;;;;5043141;28;19933;-60
2021/01/11 13:24:14;;;;;;;;;;;26.50;40.10;;;;;;5046299;28;19924;-64
2021/01/11 13:26:42;;;;;;;;;;;26.60;40.00;;;;;;5041183;28;20089;-57
2021/01/11 13:29:09;;;;;;;;;;;26.60;39.90;;;;;;5048927;28;19928;-59
2021/01/11 13:31:46;;;;;;;;;;;26.70;39.80;;;;;;5036351;28;19931;-60
2021/01/11 13:34:14;;;;;;;;;;;26.70;39.80;;;;;;5039534;28;19924;-61
2021/01/11 13:36:40;;;;;;;;;;;26.70;39.80;;;;;;5033302;28;19943;-60
2021/01/11 13:39:06;;;;;;;;;;;26.80;39.90;;;;;;5043233;28;19928;-60
2021/01/11 13:41:33;;;;;;;;;;;26.80;39.90;;;;;;5034074;28;19925;-62
2021/01/11 13:44:00;;;;;;;;;;;26.90;39.50;;;;;;5041446;28;20034;-60
2021/01/11 13:46:27;;;;;;;;;;;26.90;39.70;;;;;;5042278;28;19933;-61
2021/01/11 13:48:54;;;;;;;;;;;27.00;39.70;;;;;;5036847;28;19932;-60
2021/01/11 13:51:20;;;;;;;;;;;27.00;39.80;;;;;;5039680;28;19941;-61
2021/01/11 13:53:46;;;;;;;;;;;27.10;40.00;;;;;;5038614;28;19925;-61
2021/01/11 13:56:26;;;;;;;;;;;27.10;39.50;;;;;;5048038;28;19932;-59
2021/01/11 13:58:56;;;;;;;;;;;27.10;39.50;;;;;;5038412;28;19925;-59
2021/01/11 14:01:23;;;;;;;;;;;27.10;39.50;;;;;;5046220;28;19924;-59
2021/01/11 14:03:55;;;;;;;;;;;27.20;39.20;;;;;;5036547;28;19929;-60
2021/01/11 14:06:25;;;;;;;;;;;27.20;39.30;;;;;;5042461;28;20268;-61
2021/01/11 14:08:52;;;;;;;;;;;27.40;39.00;;;;;;5025803;28;19925;-62
2021/01/11 14:11:19;;;;;;;;;;;27.40;38.80;;;;;;5027034;28;20534;-63
2021/01/11 14:13:50;;;;;;;;;;;27.40;38.30;;;;;;5032760;28;19933;-62
2021/01/11 14:16:18;;;;;;;;;;;27.40;38.10;;;;;;5044759;28;20022;-66
2021/01/11 14:18:46;;;;;;;;;;;27.30;38.20;;;;;;5042363;28;19935;-60
2021/01/11 14:21:13;;;;;;;;;;;27.40;38.70;;;;;;5048423;28;19937;-61
2021/01/11 14:23:39;;;;;;;;;;;27.40;38.70;;;;;;5032937;28;20374;-62